sensor_id;sensor_type;location;lat;lon;timestamp;pressure;altitude;pressure_sealevel;temperature;humidity
66547;BME280;53400;50.364;14.874;2023-08-24T00:01:42;98930.78;;;19.59;71.44
66547;BME280;53400;50.364;14.874;2023-08-24T00:04:08;98937.28;;;19.25;72.23
66547;BME280;53400;50.364;14.874;2023-08-24T00:06:35;98932.53;;;19.17;73.14
66547;BME280;53400;50.364;14.874;2023-08-24T00:09:00;98924.06;;;19.19;73.42
66547;BME280;53400;50.364;14.874;2023-08-24T00:11:28;98927.47;;;19.30;72.97
66547;BME280;53400;50.364;14.874;2023-08-24T00:13:54;98934.06;;;19.23;73.10
66547;BME280;53400;50.364;14.874;2023-08-24T00:16:20;98931.25;;;19.29;73.47
66547;BME280;53400;50.364;14.874;2023-08-24T00:18:46;98925.09;;;19.23;74.05
66547;BME280;53400;50.364;14.874;2023-08-24T00:21:13;98921.19;;;19.29;74.88
66547;BME280;53400;50.364;14.874;2023-08-24T00:23:39;98933.75;;;19.44;74.28
66547;BME280;53400;50.364;14.874;2023-08-24T00:26:05;98923.13;;;19.29;74.12
66547;BME280;53400;50.364;14.874;2023-08-24T00:28:32;98929.28;;;19.34;74.01
66547;BME280;53400;50.364;14.874;2023-08-24T00:30:58;98928.47;;;19.34;73.20
66547;BME280;53400;50.364;14.874;2023-08-24T00:33:24;98929.13;;;19.25;75.05
66547;BME280;53400;50.364;14.874;2023-08-24T00:35:50;98928.19;;;19.16;74.95
66547;BME280;53400;50.364;14.874;2023-08-24T00:38:16;98928.94;;;19.03;76.17
66547;BME280;53400;50.364;14.874;2023-08-24T00:40:42;98932.28;;;19.14;75.49
66547;BME280;53400;50.364;14.874;2023-08-24T00:43:09;98932.59;;;19.12;75.89
66547;BME280;53400;50.364;14.874;2023-08-24T00:45:36;98928.78;;;19.13;75.49
66547;BME280;53400;50.364;14.874;2023-08-24T00:48:03;98923.56;;;19.17;74.86
66547;BME280;53400;50.364;14.874;2023-08-24T00:50:30;98928.56;;;19.10;75.47
66547;BME280;53400;50.364;14.874;2023-08-24T00:52:56;98930.38;;;18.71;77.05
66547;BME280;53400;50.364;14.874;2023-08-24T00:55:23;98934.41;;;18.55;77.70
66547;BME280;53400;50.364;14.874;2023-08-24T00:57:50;98936.38;;;18.73;76.10
66547;BME280;53400;50.364;14.874;2023-08-24T01:00:17;98936.38;;;18.92;75.26
66547;BME280;53400;50.364;14.874;2023-08-24T01:02:44;98937.06;;;18.84;76.21
66547;BME280;53400;50.364;14.874;2023-08-24T01:05:10;98932.34;;;18.90;75.28
66547;BME280;53400;50.364;14.874;2023-08-24T01:07:39;98927.31;;;19.02;76.00
66547;BME280;53400;50.364;14.874;2023-08-24T01:10:09;98921.53;;;19.09;75.06
66547;BME280;53400;50.364;14.874;2023-08-24T01:12:52;98927.16;;;19.31;74.51
66547;BME280;53400;50.364;14.874;2023-08-24T01:15:26;98925.53;;;18.92;76.77
66547;BME280;53400;50.364;14.874;2023-08-24T01:18:01;98925.25;;;18.94;74.89
66547;BME280;53400;50.364;14.874;2023-08-24T01:20:29;98925.84;;;19.10;74.50
66547;BME280;53400;50.364;14.874;2023-08-24T01:22:58;98926.50;;;19.01;76.04
66547;BME280;53400;50.364;14.874;2023-08-24T01:25:36;98923.63;;;19.31;75.59
66547;BME280;53400;50.364;14.874;2023-08-24T01:28:04;98928.84;;;19.27;75.56
66547;BME280;53400;50.364;14.874;2023-08-24T01:30:32;98932.97;;;19.24;75.28
66547;BME280;53400;50.364;14.874;2023-08-24T01:32:59;98926.34;;;18.93;76.36
66547;BME280;53400;50.364;14.874;2023-08-24T01:35:25;98929.56;;;18.76;77.86
66547;BME280;53400;50.364;14.874;2023-08-24T01:37:51;98927.81;;;18.61;78.48
66547;BME280;53400;50.364;14.874;2023-08-24T01:40:21;98923.44;;;18.41;79.08
66547;BME280;53400;50.364;14.874;2023-08-24T01:42:53;98927.63;;;17.41;85.14
66547;BME280;53400;50.364;14.874;2023-08-24T01:45:26;98924.28;;;17.49;85.41
66547;BME280;53400;50.364;14.874;2023-08-24T01:47:54;98928.16;;;17.72;82.51
66547;BME280;53400;50.364;14.874;2023-08-24T01:50:21;98922.31;;;17.94;81.37
66547;BME280;53400;50.364;14.874;2023-08-24T01:52:48;98922.16;;;18.33;81.61
66547;BME280;53400;50.364;14.874;2023-08-24T01:55:17;98922.09;;;18.63;79.23
66547;BME280;53400;50.364;14.874;2023-08-24T01:57:43;98918.13;;;18.79;78.52
66547;BME280;53400;50.364;14.874;2023-08-24T02:00:10;98906.47;;;18.30;79.81
66547;BME280;53400;50.364;14.874;2023-08-24T02:02:38;98922.22;;;18.28;80.04
66547;BME280;53400;50.364;14.874;2023-08-24T02:05:04;98914.91;;;18.05;79.84
66547;BME280;53400;50.364;14.874;2023-08-24T02:07:30;98918.91;;;18.55;79.20
66547;BME280;53400;50.364;14.874;2023-08-24T02:09:57;98911.66;;;18.51;78.74
66547;BME280;53400;50.364;14.874;2023-08-24T02:12:23;98912.94;;;18.34;80.31
66547;BME280;53400;50.364;14.874;2023-08-24T02:14:49;98906.66;;;18.39;79.56
66547;BME280;53400;50.364;14.874;2023-08-24T02:17:15;98906.44;;;18.36;80.13
66547;BME280;53400;50.364;14.874;2023-08-24T02:19:42;98898.53;;;18.15;82.09
66547;BME280;53400;50.364;14.874;2023-08-24T02:22:08;98908.06;;;18.07;82.06
66547;BME280;53400;50.364;14.874;2023-08-24T02:24:34;98899.09;;;17.83;83.40
66547;BME280;53400;50.364;14.874;2023-08-24T02:27:00;98898.72;;;17.65;84.35
66547;BME280;53400;50.364;14.874;2023-08-24T02:29:26;98896.00;;;17.65;84.33
66547;BME280;53400;50.364;14.874;2023-08-24T02:31:53;98895.38;;;17.45;85.93
66547;BME280;53400;50.364;14.874;2023-08-24T02:34:19;98896.31;;;17.59;84.81
66547;BME280;53400;50.364;14.874;2023-08-24T02:36:46;98897.78;;;17.46;86.28
66547;BME280;53400;50.364;14.874;2023-08-24T02:39:12;98894.78;;;17.48;85.53
66547;BME280;53400;50.364;14.874;2023-08-24T02:41:39;98891.75;;;17.54;85.23
66547;BME280;53400;50.364;14.874;2023-08-24T02:44:05;98897.22;;;17.49;85.24
66547;BME280;53400;50.364;14.874;2023-08-24T02:46:31;98892.69;;;17.39;85.90
66547;BME280;53400;50.364;14.874;2023-08-24T02:48:57;98891.66;;;17.35;85.43
66547;BME280;53400;50.364;14.874;2023-08-24T02:51:23;98891.91;;;17.34;85.68
66547;BME280;53400;50.364;14.874;2023-08-24T02:53:50;98898.50;;;17.23;86.29
66547;BME280;53400;50.364;14.874;2023-08-24T02:56:17;98893.13;;;17.17;86.64
66547;BME280;53400;50.364;14.874;2023-08-24T02:58:43;98898.63;;;17.07;86.44
66547;BME280;53400;50.364;14.874;2023-08-24T03:01:09;98903.75;;;17.04;86.84
66547;BME280;53400;50.364;14.874;2023-08-24T03:03:35;98897.69;;;17.22;85.40
66547;BME280;53400;50.364;14.874;2023-08-24T03:06:03;98895.28;;;17.15;86.16
66547;BME280;53400;50.364;14.874;2023-08-24T03:08:32;98895.72;;;16.93;87.36
66547;BME280;53400;50.364;14.874;2023-08-24T03:10:59;98896.75;;;17.03;87.69
66547;BME280;53400;50.364;14.874;2023-08-24T03:13:26;98896.84;;;16.87;88.44
66547;BME280;53400;50.364;14.874;2023-08-24T03:15:52;98907.09;;;16.90;87.38
66547;BME280;53400;50.364;14.874;2023-08-24T03:18:18;98899.81;;;16.86;87.85
66547;BME280;53400;50.364;14.874;2023-08-24T03:20:45;98901.38;;;16.92;88.04
66547;BME280;53400;50.364;14.874;2023-08-24T03:23:12;98897.41;;;16.79;89.00
66547;BME280;53400;50.364;14.874;2023-08-24T03:25:39;98898.78;;;16.77;89.07
66547;BME280;53400;50.364;14.874;2023-08-24T03:28:07;98899.03;;;16.80;89.04
66547;BME280;53400;50.364;14.874;2023-08-24T03:30:35;98898.19;;;16.90;88.44
66547;BME280;53400;50.364;14.874;2023-08-24T03:33:02;98900.00;;;17.00;88.15
66547;BME280;53400;50.364;14.874;2023-08-24T03:35:28;98895.63;;;16.49;90.42
66547;BME280;53400;50.364;14.874;2023-08-24T03:37:55;98906.66;;;16.68;90.09
66547;BME280;53400;50.364;14.874;2023-08-24T03:40:22;98901.03;;;16.54;90.82
66547;BME280;53400;50.364;14.874;2023-08-24T03:42:48;98903.47;;;16.56;91.06
66547;BME280;53400;50.364;14.874;2023-08-24T03:45:15;98899.16;;;16.49;91.06
66547;BME280;53400;50.364;14.874;2023-08-24T03:47:41;98894.28;;;16.51;90.66
66547;BME280;53400;50.364;14.874;2023-08-24T03:50:08;98887.44;;;16.64;90.39
66547;BME280;53400;50.364;14.874;2023-08-24T03:52:34;98895.84;;;16.68;90.20
66547;BME280;53400;50.364;14.874;2023-08-24T03:55:00;98895.53;;;16.69;88.36
66547;BME280;53400;50.364;14.874;2023-08-24T03:57:26;98899.31;;;16.79;89.36
66547;BME280;53400;50.364;14.874;2023-08-24T03:59:52;98895.84;;;16.68;89.37
66547;BME280;53400;50.364;14.874;2023-08-24T04:02:20;98899.38;;;16.58;90.35
66547;BME280;53400;50.364;14.874;2023-08-24T04:04:46;98898.31;;;16.59;90.40
66547;BME280;53400;50.364;14.874;2023-08-24T04:07:12;98900.47;;;16.52;90.90
66547;BME280;53400;50.364;14.874;2023-08-24T04:09:38;98901.59;;;16.46;91.05
66547;BME280;53400;50.364;14.874;2023-08-24T04:12:05;98902.22;;;16.17;92.80
66547;BME280;53400;50.364;14.874;2023-08-24T04:14:31;98900.88;;;16.20;92.78
66547;BME280;53400;50.364;14.874;2023-08-24T04:16:57;98907.84;;;16.31;90.90
66547;BME280;53400;50.364;14.874;2023-08-24T04:19:25;98912.72;;;16.34;92.60
66547;BME280;53400;50.364;14.874;2023-08-24T04:21:51;98911.16;;;16.18;93.30
66547;BME280;53400;50.364;14.874;2023-08-24T04:24:16;98914.66;;;16.18;93.32
66547;BME280;53400;50.364;14.874;2023-08-24T04:26:43;98914.16;;;15.96;94.64
66547;BME280;53400;50.364;14.874;2023-08-24T04:29:08;98915.69;;;16.38;92.15
66547;BME280;53400;50.364;14.874;2023-08-24T04:31:35;98921.00;;;16.58;90.63
66547;BME280;53400;50.364;14.874;2023-08-24T04:34:02;98925.06;;;16.61;91.59
66547;BME280;53400;50.364;14.874;2023-08-24T04:36:31;98921.91;;;16.33;93.20
66547;BME280;53400;50.364;14.874;2023-08-24T04:38:57;98920.63;;;16.85;90.57
66547;BME280;53400;50.364;14.874;2023-08-24T04:41:23;98917.13;;;16.85;90.91
66547;BME280;53400;50.364;14.874;2023-08-24T04:43:49;98912.44;;;17.01;89.15
66547;BME280;53400;50.364;14.874;2023-08-24T04:46:15;98913.97;;;16.57;91.79
66547;BME280;53400;50.364;14.874;2023-08-24T04:48:41;98922.56;;;17.24;90.73
66547;BME280;53400;50.364;14.874;2023-08-24T04:51:07;98925.31;;;17.19;89.09
66547;BME280;53400;50.364;14.874;2023-08-24T04:53:35;98928.78;;;17.64;88.19
66547;BME280;53400;50.364;14.874;2023-08-24T04:56:01;98930.44;;;18.23;84.17
66547;BME280;53400;50.364;14.874;2023-08-24T04:58:27;98934.84;;;18.62;82.20
66547;BME280;53400;50.364;14.874;2023-08-24T05:00:53;98936.25;;;18.60;82.63
66547;BME280;53400;50.364;14.874;2023-08-24T05:03:21;98936.72;;;18.14;83.31
66547;BME280;53400;50.364;14.874;2023-08-24T05:05:47;98926.66;;;18.19;85.31
66547;BME280;53400;50.364;14.874;2023-08-24T05:08:13;98936.66;;;18.24;84.48
66547;BME280;53400;50.364;14.874;2023-08-24T05:10:40;98930.13;;;18.73;82.31
66547;BME280;53400;50.364;14.874;2023-08-24T05:13:06;98928.13;;;19.02;80.88
66547;BME280;53400;50.364;14.874;2023-08-24T05:15:33;98936.91;;;19.70;79.36
66547;BME280;53400;50.364;14.874;2023-08-24T05:17:58;98937.59;;;20.22;76.78
66547;BME280;53400;50.364;14.874;2023-08-24T05:20:25;98930.66;;;20.44;77.07
66547;BME280;53400;50.364;14.874;2023-08-24T05:22:51;98926.72;;;19.43;78.92
66547;BME280;53400;50.364;14.874;2023-08-24T05:25:18;98922.97;;;20.04;78.21
66547;BME280;53400;50.364;14.874;2023-08-24T05:27:45;98932.59;;;21.21;74.67
66547;BME280;53400;50.364;14.874;2023-08-24T05:30:12;98932.69;;;20.66;74.44
66547;BME280;53400;50.364;14.874;2023-08-24T05:32:38;98933.47;;;21.44;72.58
66547;BME280;53400;50.364;14.874;2023-08-24T05:35:05;98930.97;;;22.01;70.98
66547;BME280;53400;50.364;14.874;2023-08-24T05:37:32;98939.88;;;22.55;69.81
66547;BME280;53400;50.364;14.874;2023-08-24T05:39:58;98934.28;;;22.69;66.74
66547;BME280;53400;50.364;14.874;2023-08-24T05:42:24;98931.06;;;22.67;68.68
66547;BME280;53400;50.364;14.874;2023-08-24T05:44:52;98932.56;;;22.90;68.62
66547;BME280;53400;50.364;14.874;2023-08-24T05:47:18;98933.81;;;22.76;68.16
66547;BME280;53400;50.364;14.874;2023-08-24T05:49:44;98934.00;;;22.71;68.53
66547;BME280;53400;50.364;14.874;2023-08-24T05:52:10;98933.38;;;22.91;67.35
66547;BME280;53400;50.364;14.874;2023-08-24T05:54:39;98926.28;;;22.81;68.19
66547;BME280;53400;50.364;14.874;2023-08-24T05:57:05;98930.25;;;22.66;68.31
66547;BME280;53400;50.364;14.874;2023-08-24T05:59:32;98935.00;;;22.35;69.50
66547;BME280;53400;50.364;14.874;2023-08-24T06:02:00;98925.56;;;22.50;68.48
66547;BME280;53400;50.364;14.874;2023-08-24T06:04:26;98936.00;;;23.05;68.72
66547;BME280;53400;50.364;14.874;2023-08-24T06:06:52;98928.31;;;23.42;67.12
66547;BME280;53400;50.364;14.874;2023-08-24T06:09:18;98932.78;;;23.64;65.34
66547;BME280;53400;50.364;14.874;2023-08-24T06:11:44;98941.16;;;23.58;65.57
66547;BME280;53400;50.364;14.874;2023-08-24T06:14:10;98941.31;;;23.53;65.86
66547;BME280;53400;50.364;14.874;2023-08-24T06:16:36;98937.75;;;23.96;65.51
66547;BME280;53400;50.364;14.874;2023-08-24T06:19:04;98936.16;;;23.78;64.55
66547;BME280;53400;50.364;14.874;2023-08-24T06:21:30;98938.00;;;24.12;63.75
66547;BME280;53400;50.364;14.874;2023-08-24T06:23:59;98936.59;;;23.97;64.56
66547;BME280;53400;50.364;14.874;2023-08-24T06:26:26;98927.00;;;23.22;64.78
66547;BME280;53400;50.364;14.874;2023-08-24T06:28:52;98921.56;;;22.47;68.07
66547;BME280;53400;50.364;14.874;2023-08-24T06:31:18;98926.22;;;21.62;70.48
66547;BME280;53400;50.364;14.874;2023-08-24T06:33:45;98925.59;;;22.18;70.17
66547;BME280;53400;50.364;14.874;2023-08-24T06:36:12;98922.88;;;22.67;68.57
66547;BME280;53400;50.364;14.874;2023-08-24T06:38:39;98929.41;;;23.15;67.58
66547;BME280;53400;50.364;14.874;2023-08-24T06:41:05;98928.09;;;22.86;64.92
66547;BME280;53400;50.364;14.874;2023-08-24T06:43:31;98930.44;;;22.61;66.77
66547;BME280;53400;50.364;14.874;2023-08-24T06:45:57;98933.28;;;23.22;65.70
66547;BME280;53400;50.364;14.874;2023-08-24T06:48:23;98934.13;;;21.72;69.32
66547;BME280;53400;50.364;14.874;2023-08-24T06:50:49;98926.53;;;22.54;69.45
66547;BME280;53400;50.364;14.874;2023-08-24T06:53:16;98930.56;;;21.63;70.81
66547;BME280;53400;50.364;14.874;2023-08-24T06:55:42;98922.38;;;21.63;70.89
66547;BME280;53400;50.364;14.874;2023-08-24T06:58:08;98925.56;;;22.10;70.05
66547;BME280;53400;50.364;14.874;2023-08-24T07:00:34;98925.34;;;21.75;71.78
66547;BME280;53400;50.364;14.874;2023-08-24T07:03:01;98929.63;;;21.67;72.59
66547;BME280;53400;50.364;14.874;2023-08-24T07:05:27;98925.41;;;22.55;70.54
66547;BME280;53400;50.364;14.874;2023-08-24T07:07:54;98920.25;;;23.45;68.45
66547;BME280;53400;50.364;14.874;2023-08-24T07:10:22;98930.38;;;23.01;67.96
66547;BME280;53400;50.364;14.874;2023-08-24T07:12:48;98923.13;;;23.57;67.03
66547;BME280;53400;50.364;14.874;2023-08-24T07:15:14;98935.69;;;23.76;66.02
66547;BME280;53400;50.364;14.874;2023-08-24T07:17:40;98925.38;;;23.81;66.87
66547;BME280;53400;50.364;14.874;2023-08-24T07:20:07;98927.59;;;23.97;66.65
66547;BME280;53400;50.364;14.874;2023-08-24T07:22:37;98929.25;;;24.27;65.69
66547;BME280;53400;50.364;14.874;2023-08-24T07:25:04;98924.38;;;24.51;64.60
66547;BME280;53400;50.364;14.874;2023-08-24T07:27:33;98922.84;;;24.23;65.60
66547;BME280;53400;50.364;14.874;2023-08-24T07:29:59;98933.28;;;23.31;68.93
66547;BME280;53400;50.364;14.874;2023-08-24T07:32:26;98923.78;;;23.72;68.56
66547;BME280;53400;50.364;14.874;2023-08-24T07:34:52;98927.81;;;23.74;67.88
66547;BME280;53400;50.364;14.874;2023-08-24T07:37:18;98930.91;;;24.20;67.48
66547;BME280;53400;50.364;14.874;2023-08-24T07:39:44;98934.75;;;24.19;66.30
66547;BME280;53400;50.364;14.874;2023-08-24T07:42:10;98938.28;;;24.19;66.41
66547;BME280;53400;50.364;14.874;2023-08-24T07:44:38;98932.09;;;24.01;67.87
66547;BME280;53400;50.364;14.874;2023-08-24T07:47:04;98931.00;;;24.41;67.35
66547;BME280;53400;50.364;14.874;2023-08-24T07:49:30;98923.50;;;24.59;67.70
66547;BME280;53400;50.364;14.874;2023-08-24T07:51:57;98929.25;;;23.89;67.81
66547;BME280;53400;50.364;14.874;2023-08-24T07:54:24;98928.41;;;23.89;67.34
66547;BME280;53400;50.364;14.874;2023-08-24T07:56:51;98933.41;;;23.87;69.07
66547;BME280;53400;50.364;14.874;2023-08-24T07:59:16;98928.75;;;24.43;66.80
66547;BME280;53400;50.364;14.874;2023-08-24T08:01:44;98922.63;;;24.76;66.88
66547;BME280;53400;50.364;14.874;2023-08-24T08:04:10;98930.03;;;24.75;67.00
66547;BME280;53400;50.364;14.874;2023-08-24T08:06:36;98930.75;;;25.35;65.33
66547;BME280;53400;50.364;14.874;2023-08-24T08:09:02;98934.50;;;25.30;65.16
66547;BME280;53400;50.364;14.874;2023-08-24T08:11:28;98919.00;;;24.63;67.22
66547;BME280;53400;50.364;14.874;2023-08-24T08:13:54;98915.88;;;24.35;68.90
66547;BME280;53400;50.364;14.874;2023-08-24T08:16:21;98913.75;;;24.79;66.96
66547;BME280;53400;50.364;14.874;2023-08-24T08:18:48;98929.16;;;24.62;66.18
66547;BME280;53400;50.364;14.874;2023-08-24T08:21:16;98916.25;;;24.63;67.30
66547;BME280;53400;50.364;14.874;2023-08-24T08:23:45;98927.69;;;25.15;68.46
66547;BME280;53400;50.364;14.874;2023-08-24T08:26:12;98921.03;;;25.58;65.61
66547;BME280;53400;50.364;14.874;2023-08-24T08:28:39;98921.31;;;26.11;64.47
66547;BME280;53400;50.364;14.874;2023-08-24T08:31:05;98922.72;;;26.17;62.04
66547;BME280;53400;50.364;14.874;2023-08-24T08:33:31;98925.91;;;25.53;64.26
66547;BME280;53400;50.364;14.874;2023-08-24T08:35:59;98920.06;;;25.21;65.55
66547;BME280;53400;50.364;14.874;2023-08-24T08:38:25;98920.84;;;25.63;63.99
66547;BME280;53400;50.364;14.874;2023-08-24T08:40:56;98917.19;;;26.05;62.06
66547;BME280;53400;50.364;14.874;2023-08-24T08:43:28;98911.13;;;25.99;61.91
66547;BME280;53400;50.364;14.874;2023-08-24T08:45:56;98914.97;;;25.86;62.22
66547;BME280;53400;50.364;14.874;2023-08-24T08:48:23;98916.88;;;26.31;60.43
66547;BME280;53400;50.364;14.874;2023-08-24T08:50:51;98916.66;;;26.48;58.14
66547;BME280;53400;50.364;14.874;2023-08-24T08:53:22;98914.59;;;26.45;59.58
66547;BME280;53400;50.364;14.874;2023-08-24T08:55:51;98915.44;;;25.55;61.89
66547;BME280;53400;50.364;14.874;2023-08-24T08:58:18;98912.88;;;25.50;62.62
66547;BME280;53400;50.364;14.874;2023-08-24T09:00:46;98906.91;;;25.69;62.31
66547;BME280;53400;50.364;14.874;2023-08-24T09:03:17;98908.47;;;26.61;60.03
66547;BME280;53400;50.364;14.874;2023-08-24T09:05:44;98911.28;;;26.76;57.65
66547;BME280;53400;50.364;14.874;2023-08-24T09:08:14;98911.72;;;27.15;57.36
66547;BME280;53400;50.364;14.874;2023-08-24T09:10:41;98911.31;;;27.29;57.41
66547;BME280;53400;50.364;14.874;2023-08-24T09:13:08;98907.41;;;27.58;57.66
66547;BME280;53400;50.364;14.874;2023-08-24T09:15:35;98911.41;;;27.61;57.94
66547;BME280;53400;50.364;14.874;2023-08-24T09:18:02;98900.56;;;27.80;58.00
66547;BME280;53400;50.364;14.874;2023-08-24T09:20:29;98904.81;;;27.78;56.95
66547;BME280;53400;50.364;14.874;2023-08-24T09:22:56;98904.44;;;27.63;57.54
66547;BME280;53400;50.364;14.874;2023-08-24T09:25:25;98899.19;;;27.74;56.58
66547;BME280;53400;50.364;14.874;2023-08-24T09:28:00;98896.56;;;27.94;56.08
66547;BME280;53400;50.364;14.874;2023-08-24T09:30:30;98893.88;;;28.41;54.88
66547;BME280;53400;50.364;14.874;2023-08-24T09:33:01;98887.25;;;28.30;55.50
66547;BME280;53400;50.364;14.874;2023-08-24T09:35:34;98883.97;;;28.40;57.14
66547;BME280;53400;50.364;14.874;2023-08-24T09:38:15;98886.56;;;28.49;54.39
66547;BME280;53400;50.364;14.874;2023-08-24T09:40:45;98878.34;;;27.17;56.28
66547;BME280;53400;50.364;14.874;2023-08-24T09:43:14;98876.28;;;27.14;58.66
66547;BME280;53400;50.364;14.874;2023-08-24T09:45:51;98870.75;;;26.86;57.04
66547;BME280;53400;50.364;14.874;2023-08-24T09:48:20;98870.72;;;27.38;57.27
66547;BME280;53400;50.364;14.874;2023-08-24T09:50:49;98863.88;;;26.92;57.01
66547;BME280;53400;50.364;14.874;2023-08-24T09:53:18;98861.28;;;27.67;55.80
66547;BME280;53400;50.364;14.874;2023-08-24T09:55:49;98866.53;;;28.36;54.91
66547;BME280;53400;50.364;14.874;2023-08-24T09:58:20;98857.34;;;28.79;54.57
66547;BME280;53400;50.364;14.874;2023-08-24T10:00:48;98856.31;;;28.88;53.82
66547;BME280;53400;50.364;14.874;2023-08-24T10:03:16;98853.69;;;28.75;55.61
66547;BME280;53400;50.364;14.874;2023-08-24T10:05:48;98846.00;;;28.65;54.60
66547;BME280;53400;50.364;14.874;2023-08-24T10:08:17;98846.88;;;29.04;53.55
66547;BME280;53400;50.364;14.874;2023-08-24T10:10:46;98848.88;;;29.46;51.19
66547;BME280;53400;50.364;14.874;2023-08-24T10:13:18;98841.09;;;28.74;52.72
66547;BME280;53400;50.364;14.874;2023-08-24T10:15:49;98833.00;;;28.30;53.44
66547;BME280;53400;50.364;14.874;2023-08-24T10:18:16;98831.50;;;28.68;52.62
66547;BME280;53400;50.364;14.874;2023-08-24T10:20:43;98834.28;;;28.88;54.31
66547;BME280;53400;50.364;14.874;2023-08-24T10:23:10;98822.50;;;29.07;52.99
66547;BME280;53400;50.364;14.874;2023-08-24T10:25:38;98813.00;;;29.46;53.10
66547;BME280;53400;50.364;14.874;2023-08-24T10:28:05;98818.19;;;29.29;52.30
66547;BME280;53400;50.364;14.874;2023-08-24T10:30:34;98810.00;;;28.07;53.14
66547;BME280;53400;50.364;14.874;2023-08-24T10:33:02;98808.81;;;28.40;53.96
66547;BME280;53400;50.364;14.874;2023-08-24T10:35:28;98815.22;;;28.98;51.53
66547;BME280;53400;50.364;14.874;2023-08-24T10:37:58;98809.84;;;28.86;51.36
66547;BME280;53400;50.364;14.874;2023-08-24T10:40:42;98805.56;;;27.86;53.43
66547;BME280;53400;50.364;14.874;2023-08-24T10:43:10;98804.31;;;28.16;53.58
66547;BME280;53400;50.364;14.874;2023-08-24T10:45:56;98809.13;;;28.54;53.28
66547;BME280;53400;50.364;14.874;2023-08-24T10:48:24;98805.47;;;28.66;53.61
66547;BME280;53400;50.364;14.874;2023-08-24T10:51:16;98803.28;;;28.75;53.14
66547;BME280;53400;50.364;14.874;2023-08-24T10:53:45;98796.75;;;29.41;52.62
66547;BME280;53400;50.364;14.874;2023-08-24T10:56:12;98798.25;;;29.81;50.93
66547;BME280;53400;50.364;14.874;2023-08-24T10:58:38;98802.38;;;28.16;52.37
66547;BME280;53400;50.364;14.874;2023-08-24T11:01:14;98789.16;;;27.90;53.47
66547;BME280;53400;50.364;14.874;2023-08-24T11:03:49;98793.50;;;28.77;51.62
66547;BME280;53400;50.364;14.874;2023-08-24T11:06:18;98791.91;;;29.15;52.19
66547;BME280;53400;50.364;14.874;2023-08-24T11:08:45;98783.56;;;29.74;49.63
66547;BME280;53400;50.364;14.874;2023-08-24T11:11:18;98773.72;;;29.53;49.69
66547;BME280;53400;50.364;14.874;2023-08-24T11:14:13;98786.72;;;29.10;50.55
66547;BME280;53400;50.364;14.874;2023-08-24T11:16:41;98782.28;;;29.48;51.78
66547;BME280;53400;50.364;14.874;2023-08-24T11:19:10;98777.66;;;29.52;50.00
66547;BME280;53400;50.364;14.874;2023-08-24T11:21:38;98774.41;;;29.04;50.36
66547;BME280;53400;50.364;14.874;2023-08-24T11:24:05;98772.84;;;29.26;50.30
66547;BME280;53400;50.364;14.874;2023-08-24T11:26:32;98761.41;;;29.27;48.38
66547;BME280;53400;50.364;14.874;2023-08-24T11:28:57;98756.50;;;29.17;49.45
66547;BME280;53400;50.364;14.874;2023-08-24T11:31:24;98760.47;;;29.85;48.68
66547;BME280;53400;50.364;14.874;2023-08-24T11:33:54;98756.28;;;29.95;49.78
66547;BME280;53400;50.364;14.874;2023-08-24T11:36:23;98767.66;;;29.90;48.82
66547;BME280;53400;50.364;14.874;2023-08-24T11:38:52;98759.94;;;30.03;51.03
66547;BME280;53400;50.364;14.874;2023-08-24T11:41:19;98747.84;;;30.11;50.51
66547;BME280;53400;50.364;14.874;2023-08-24T11:43:48;98748.03;;;29.49;52.53
66547;BME280;53400;50.364;14.874;2023-08-24T11:46:17;98743.03;;;30.04;51.10
66547;BME280;53400;50.364;14.874;2023-08-24T11:48:43;98741.69;;;30.78;47.95
66547;BME280;53400;50.364;14.874;2023-08-24T11:51:10;98733.66;;;31.03;47.47
66547;BME280;53400;50.364;14.874;2023-08-24T11:53:41;98735.63;;;30.69;47.60
66547;BME280;53400;50.364;14.874;2023-08-24T11:56:08;98733.97;;;29.58;49.57
66547;BME280;53400;50.364;14.874;2023-08-24T11:58:37;98724.81;;;30.26;49.12
66547;BME280;53400;50.364;14.874;2023-08-24T12:01:04;98732.16;;;30.45;51.02
66547;BME280;53400;50.364;14.874;2023-08-24T12:03:30;98736.75;;;30.34;48.76
66547;BME280;53400;50.364;14.874;2023-08-24T12:05:59;98730.13;;;30.72;49.10
66547;BME280;53400;50.364;14.874;2023-08-24T12:08:26;98728.41;;;30.91;49.51
66547;BME280;53400;50.364;14.874;2023-08-24T12:10:53;98717.13;;;30.76;50.68
66547;BME280;53400;50.364;14.874;2023-08-24T12:13:19;98716.78;;;31.15;48.58
66547;BME280;53400;50.364;14.874;2023-08-24T12:15:47;98704.03;;;31.03;48.32
66547;BME280;53400;50.364;14.874;2023-08-24T12:18:15;98709.38;;;30.55;48.37
66547;BME280;53400;50.364;14.874;2023-08-24T12:20:42;98700.34;;;30.58;47.95
66547;BME280;53400;50.364;14.874;2023-08-24T12:23:09;98701.19;;;30.29;47.31
66547;BME280;53400;50.364;14.874;2023-08-24T12:25:36;98701.44;;;30.20;48.53
66547;BME280;53400;50.364;14.874;2023-08-24T12:28:14;98698.03;;;30.30;48.96
66547;BME280;53400;50.364;14.874;2023-08-24T12:30:49;98700.25;;;30.51;48.41
66547;BME280;53400;50.364;14.874;2023-08-24T12:33:23;98702.53;;;30.76;48.66
66547;BME280;53400;50.364;14.874;2023-08-24T12:35:49;98694.88;;;30.96;46.64
66547;BME280;53400;50.364;14.874;2023-08-24T12:38:18;98699.84;;;31.20;48.57
66547;BME280;53400;50.364;14.874;2023-08-24T12:40:44;98700.53;;;31.10;49.64
66547;BME280;53400;50.364;14.874;2023-08-24T12:43:10;98691.75;;;31.01;49.69
66547;BME280;53400;50.364;14.874;2023-08-24T12:45:38;98684.75;;;31.11;46.38
66547;BME280;53400;50.364;14.874;2023-08-24T12:48:07;98684.13;;;30.87;47.88
66547;BME280;53400;50.364;14.874;2023-08-24T12:50:34;98674.28;;;30.90;47.75
66547;BME280;53400;50.364;14.874;2023-08-24T12:53:00;98662.06;;;30.94;46.87